Time;durP1;ratioP1;P1;durP2;ratioP2;P2;SDS_P1;SDS_P2;PMS_P1;PMS_P2;Temp;Humidity;BMP_temperature;BMP_pressure;BME280_temperature;BME280_humidity;BME280_pressure;Samples;Min_cycle;Max_cycle;Signal;HPM_P1;HPM_P2
2023/12/23 00:02:20;;;;;;;5.97;2.50;;;;;;;;;;5012134;28;20054;-26
2023/12/23 00:04:47;;;;;;;6.20;2.42;;;19.10;74.30;;;;;;4996635;28;20423;-26
2023/12/23 00:07:14;;;;;;;5.32;2.40;;;;;;;;;;4992006;28;20658;-27
2023/12/23 00:09:42;;;;;;;4.40;2.40;;;19.00;49.50;;;;;;4992861;28;20077;-27
2023/12/23 00:12:09;;;;;;;4.50;2.30;;;19.80;49.90;;;;;;4983995;28;20054;-27
2023/12/23 00:14:37;;;;;;;5.97;2.28;;;;;;;;;;4992187;28;20050;-27
2023/12/23 00:17:04;;;;;;;5.20;2.20;;;;;;;;;;4992111;28;20042;-27
2023/12/23 00:19:31;;;;;;;7.03;2.33;;;20.10;70.60;;;;;;4992501;28;20053;-26
2023/12/23 00:21:58;;;;;;;5.43;2.40;;;;;;;;;;4992502;28;20050;-27
2023/12/23 00:24:26;;;;;;;6.15;2.40;;;;;;;;;;4991732;28;20104;-26
2023/12/23 00:26:57;;;;;;;6.10;2.85;;;;;;;;;;4991951;28;20442;-25
2023/12/23 00:29:24;;;;;;;5.63;2.50;;;18.90;60.00;;;;;;4992224;28;20086;-25
2023/12/23 00:31:51;;;;;;;5.60;2.20;;;;;;;;;;4992257;28;20101;-27
2023/12/23 00:34:18;;;;;;;5.35;2.38;;;19.20;74.50;;;;;;4991795;28;20495;-26
2023/12/23 00:36:45;;;;;;;4.63;2.10;;;;;;;;;;4991433;28;20054;-27
2023/12/23 00:39:12;;;;;;;5.35;2.05;;;18.60;74.60;;;;;;4991965;28;20073;-27
2023/12/23 00:41:40;;;;;;;4.38;2.20;;;18.70;50.60;;;;;;4992098;28;20078;-26
2023/12/23 00:44:08;;;;;;;5.05;2.28;;;;;;;;;;4991772;28;20396;-27
2023/12/23 00:46:35;;;;;;;6.35;2.00;;;;;;;;;;5002605;28;20108;-26
2023/12/23 00:49:02;;;;;;;4.47;2.00;;;20.20;75.30;;;;;;5011467;28;20054;-27
2023/12/23 00:51:30;;;;;;;7.75;2.42;;;;;;;;;;5011709;28;20069;-26
2023/12/23 00:53:57;;;;;;;3.78;1.90;;;;;;;;;;5004512;28;20070;-27
2023/12/23 00:56:24;;;;;;;4.60;2.20;;;18.60;74.30;;;;;;4993786;28;20058;-27
2023/12/23 00:58:51;;;;;;;6.10;2.00;;;;;;;;;;5011642;28;20461;-27
2023/12/23 01:01:20;;;;;;;3.65;1.83;;;;;;;;;;5011350;28;20053;-27
2023/12/23 01:03:47;;;;;;;3.47;1.98;;;;;;;;;;5006103;28;20092;-27
2023/12/23 01:06:14;;;;;;;4.07;2.03;;;;;;;;;;4991541;28;20054;-26
2023/12/23 01:08:41;;;;;;;5.50;2.17;;;;;;;;;;4991761;28;20136;-27
2023/12/23 01:11:09;;;;;;;6.43;2.30;;;18.50;59.20;;;;;;4991571;28;20051;-27
2023/12/23 01:13:36;;;;;;;4.57;1.80;;;18.50;53.40;;;;;;4990880;28;20042;-27
2023/12/23 01:16:03;;;;;;;4.40;1.85;;;;;;;;;;4991232;28;20050;-27
2023/12/23 01:18:32;;;;;;;4.65;1.92;;;;;;;;;;4990987;28;20046;-27
2023/12/23 01:20:59;;;;;;;5.97;1.90;;;;;;;;;;4991303;28;20611;-26
2023/12/23 01:23:26;;;;;;;3.88;1.83;;;;;;;;;;4991189;28;20053;-26
2023/12/23 01:25:53;;;;;;;4.13;1.83;;;18.60;74.60;;;;;;4991109;28;20054;-26
2023/12/23 01:28:20;;;;;;;5.28;2.10;;;;;;;;;;4990656;28;20061;-26
2023/12/23 01:30:47;;;;;;;4.28;1.90;;;18.10;75.00;;;;;;4991058;28;20549;-26
2023/12/23 01:33:14;;;;;;;6.40;2.13;;;;;;;;;;4990949;28;20039;-27
2023/12/23 01:35:43;;;;;;;3.95;1.65;;;;;;;;;;4990678;28;20050;-26
2023/12/23 01:38:10;;;;;;;3.88;1.60;;;18.50;74.60;;;;;;4989791;28;20116;-26
2023/12/23 01:40:37;;;;;;;4.35;1.65;;;;;;;;;;4990909;28;20605;-27
2023/12/23 01:43:04;;;;;;;3.67;1.70;;;18.50;63.50;;;;;;4990774;28;20459;-27
2023/12/23 01:45:31;;;;;;;3.13;1.50;;;;;;;;;;4990687;28;20577;-27
2023/12/23 01:48:00;;;;;;;4.88;1.67;;;;;;;;;;4990596;28;20503;-26
2023/12/23 01:50:26;;;;;;;4.57;1.83;;;19.10;74.80;;;;;;4990698;28;20101;-25
2023/12/23 01:52:55;;;;;;;3.30;1.50;;;;;;;;;;4990815;28;20042;-26
2023/12/23 01:55:22;;;;;;;2.92;1.63;;;18.60;55.90;;;;;;4990813;28;20050;-25
2023/12/23 01:57:49;;;;;;;3.53;1.63;;;;;;;;;;4989034;28;20058;-26
2023/12/23 02:00:16;;;;;;;4.90;1.75;;;17.40;73.90;;;;;;4988180;28;20047;-25
2023/12/23 02:02:43;;;;;;;3.90;1.85;;;;;;;;;;4990847;28;20050;-26
2023/12/23 02:05:10;;;;;;;4.72;1.40;;;18.40;59.40;;;;;;4990099;28;20065;-25
2023/12/23 02:07:38;;;;;;;3.10;1.40;;;;;;;;;;4990522;28;20054;-26
2023/12/23 02:10:07;;;;;;;2.72;1.35;;;18.50;49.80;;;;;;4990034;28;20047;-26
2023/12/23 02:12:36;;;;;;;3.70;1.50;;;;;;;;;;4989994;28;20411;-26
2023/12/23 02:15:04;;;;;;;3.22;1.45;;;;;;;;;;4994499;28;20065;-26
2023/12/23 02:17:31;;;;;;;3.78;1.63;;;;;;;;;;4994641;28;20050;-26
2023/12/23 02:19:58;;;;;;;1.83;1.10;;;;;;;;;;4994620;28;20107;-27
2023/12/23 02:22:27;;;;;;;3.70;1.60;;;18.50;49.60;;;;;;4993849;28;20053;-25
2023/12/23 02:24:54;;;;;;;3.17;1.30;;;;;;;;;;4994505;28;20447;-26
2023/12/23 02:27:22;;;;;;;3.10;1.38;;;18.40;62.80;;;;;;4993910;28;20467;-26
2023/12/23 02:29:49;;;;;;;4.22;1.70;;;18.50;74.60;;;;;;4994540;28;20392;-27
2023/12/23 02:32:16;;;;;;;3.55;1.35;;;;;;;;;;4994028;28;20527;-26
2023/12/23 02:34:44;;;;;;;3.45;1.35;;;;;;;;;;4993810;28;20494;-27
2023/12/23 02:37:11;;;;;;;3.60;1.50;;;;;;;;;;4993767;28;20588;-26
2023/12/23 02:39:39;;;;;;;4.15;1.40;;;;;;;;;;4994163;28;20116;-27
2023/12/23 02:42:07;;;;;;;3.03;1.30;;;;;;;;;;4993460;28;20047;-27
2023/12/23 02:44:34;;;;;;;2.92;1.55;;;18.60;74.00;;;;;;4994171;28;20474;-27
2023/12/23 02:47:01;;;;;;;3.67;1.50;;;;;;;;;;4994371;28;20631;-27
2023/12/23 02:49:28;;;;;;;2.78;1.40;;;18.80;63.00;;;;;;4994087;28;20121;-27
2023/12/23 02:51:55;;;;;;;3.25;1.20;;;;;;;;;;4993495;28;20554;-27
2023/12/23 02:54:22;;;;;;;4.47;1.40;;;;;;;;;;4993995;28;20503;-27
2023/12/23 02:56:52;;;;;;;3.03;1.33;;;18.90;49.50;;;;;;4998571;28;20037;-26
2023/12/23 02:59:19;;;;;;;2.97;1.35;;;;;;;;;;5006737;28;20060;-27
2023/12/23 03:01:46;;;;;;;3.90;1.38;;;;;;;;;;4993548;28;20055;-27
2023/12/23 03:04:14;;;;;;;2.33;1.15;;;;;;;;;;4993758;28;20105;-25
2023/12/23 03:06:40;;;;;;;5.57;1.50;;;19.80;51.30;;;;;;4992483;28;20054;-27
2023/12/23 03:09:08;;;;;;;3.78;1.40;;;;;;;;;;4993266;28;20054;-27
2023/12/23 03:11:36;;;;;;;3.38;1.20;;;;;;;;;;4993578;28;20057;-27
2023/12/23 03:14:05;;;;;;;3.47;1.27;;;;;;;;;;4993459;28;20061;-27
2023/12/23 03:16:35;;;;;;;3.22;1.40;;;;;;;;;;4993643;28;20062;-27
2023/12/23 03:19:03;;;;;;;2.90;1.17;;;;;;;;;;4993403;28;20057;-27
2023/12/23 03:21:30;;;;;;;2.08;1.08;;;;;;;;;;4993136;28;20077;-27
2023/12/23 03:23:57;;;;;;;3.40;1.40;;;;;;;;;;4992854;28;20051;-27
2023/12/23 03:26:24;;;;;;;4.07;1.23;;;;;;;;;;4992466;28;20073;-26
2023/12/23 03:28:51;;;;;;;2.92;1.20;;;19.20;55.40;;;;;;4992967;28;20061;-27
2023/12/23 03:31:20;;;;;;;3.00;1.10;;;19.20;49.00;;;;;;4992455;28;20059;-26
2023/12/23 03:33:47;;;;;;;2.03;1.02;;;19.40;61.20;;;;;;4992769;28;20042;-27
2023/12/23 03:36:14;;;;;;;2.53;1.20;;;;;;;;;;4992525;28;20101;-27
2023/12/23 03:38:41;;;;;;;3.28;1.27;;;;;;;;;;4992520;28;20142;-27
2023/12/23 03:41:08;;;;;;;3.47;1.38;;;19.30;67.10;;;;;;4973764;28;20055;-27
2023/12/23 03:43:35;;;;;;;2.47;1.17;;;;;;;;;;4973003;28;20050;-26
2023/12/23 03:46:02;;;;;;;2.42;0.90;;;19.90;73.70;;;;;;4973591;28;20063;-27
2023/12/23 03:48:30;;;;;;;3.65;1.30;;;;;;;;;;4973519;28;20109;-27
2023/12/23 03:50:57;;;;;;;2.70;1.30;;;19.30;55.20;;;;;;4991620;28;20438;-27
2023/12/23 03:53:24;;;;;;;4.47;1.38;;;19.30;73.30;;;;;;4992640;28;20495;-27
2023/12/23 03:55:51;;;;;;;2.70;1.00;;;;;;;;;;4992587;28;20108;-27
2023/12/23 03:58:18;;;;;;;2.33;1.00;;;;;;;;;;4992721;28;20055;-27
2023/12/23 04:00:47;;;;;;;2.28;1.10;;;;;;;;;;4992162;28;20054;-26
2023/12/23 04:03:13;;;;;;;2.17;0.95;;;19.40;58.50;;;;;;4992075;28;20051;-26
2023/12/23 04:05:42;;;;;;;3.03;1.40;;;;;;;;;;4992570;28;20054;-27
2023/12/23 04:08:09;;;;;;;1.00;0.75;;;;;;;;;;4992389;28;20101;-25
2023/12/23 04:10:36;;;;;;;2.65;1.23;;;19.40;73.70;;;;;;4992634;28;20054;-25
2023/12/23 04:13:03;;;;;;;1.63;1.00;;;;;;;;;;4992339;28;20096;-25
2023/12/23 04:15:30;;;;;;;1.92;1.08;;;19.40;70.70;;;;;;4992041;28;20096;-25
2023/12/23 04:17:57;;;;;;;2.28;1.05;;;19.50;73.40;;;;;;4992038;28;20054;-25
2023/12/23 04:20:24;;;;;;;1.60;0.90;;;;;;;;;;4992278;28;20046;-26
2023/12/23 04:22:52;;;;;;;2.15;1.00;;;19.50;48.70;;;;;;4992306;28;20046;-25
2023/12/23 04:25:19;;;;;;;2.35;1.08;;;19.40;73.60;;;;;;4992099;28;20061;-25
2023/12/23 04:27:46;;;;;;;3.35;1.10;;;;;;;;;;4992036;28;20054;-26
2023/12/23 04:30:14;;;;;;;3.40;1.17;;;;;;;;;;4991751;28;20050;-26
2023/12/23 04:32:41;;;;;;;1.63;0.95;;;20.30;66.30;;;;;;4992266;28;20054;-26
2023/12/23 04:35:09;;;;;;;1.88;0.93;;;;;;;;;;4991890;28;20058;-27
2023/12/23 04:37:40;;;;;;;2.00;0.98;;;19.50;73.40;;;;;;4991088;28;20054;-25
2023/12/23 04:40:09;;;;;;;2.03;1.00;;;;;;;;;;4991820;28;20509;-26
2023/12/23 04:42:36;;;;;;;2.05;0.90;;;20.50;73.50;;;;;;4991638;28;20042;-25
2023/12/23 04:45:03;;;;;;;1.50;0.70;;;19.30;56.50;;;;;;4991925;28;20053;-26
2023/12/23 04:47:30;;;;;;;1.48;0.88;;;;;;;;;;4991574;28;20062;-26
2023/12/23 04:49:57;;;;;;;2.00;1.23;;;;;;;;;;4991409;28;20050;-26
2023/12/23 04:52:24;;;;;;;1.77;0.82;;;19.60;73.10;;;;;;4991436;28;20474;-26
2023/12/23 04:54:51;;;;;;;2.80;1.00;;;;;;;;;;4991654;28;20046;-26
2023/12/23 04:57:20;;;;;;;2.65;0.88;;;;;;;;;;4991349;28;20126;-26
2023/12/23 04:59:47;;;;;;;2.45;1.08;;;;;;;;;;4991467;28;20057;-26
2023/12/23 05:02:14;;;;;;;2.85;1.00;;;19.70;73.30;;;;;;4991497;28;20047;-26
2023/12/23 05:04:42;;;;;;;2.63;1.00;;;;;;;;;;4991664;28;20174;-26
2023/12/23 05:07:10;;;;;;;1.70;0.80;;;;;;;;;;4991627;28;20108;-27
2023/12/23 05:09:36;;;;;;;1.75;0.90;;;19.60;73.30;;;;;;4991140;28;20042;-27
2023/12/23 05:12:04;;;;;;;2.00;0.77;;;;;;;;;;4991111;28;20565;-26
2023/12/23 05:14:32;;;;;;;1.20;0.85;;;19.70;48.50;;;;;;4991554;28;20058;-27
2023/12/23 05:16:59;;;;;;;1.52;0.88;;;;;;;;;;4991420;28;20050;-26
2023/12/23 05:19:26;;;;;;;1.23;0.70;;;19.80;73.00;;;;;;4991361;28;20097;-27
2023/12/23 05:21:53;;;;;;;1.20;0.52;;;;;;;;;;4990079;28;20058;-27
2023/12/23 05:24:20;;;;;;;1.40;0.80;;;;;;;;;;4991410;28;20104;-26
2023/12/23 05:26:48;;;;;;;2.58;0.95;;;;;;;;;;4991427;28;20054;-26
2023/12/23 05:29:15;;;;;;;1.98;1.00;;;;;;;;;;4991110;28;20105;-26
2023/12/23 05:31:43;;;;;;;1.25;0.60;;;;;;;;;;4991733;28;20054;-26
2023/12/23 05:34:10;;;;;;;1.60;0.90;;;;;;;;;;4991442;28;20396;-26
2023/12/23 05:36:37;;;;;;;1.08;0.60;;;;;;;;;;4990867;28;20046;-26
2023/12/23 05:39:06;;;;;;;1.70;0.75;;;;;;;;;;4990812;28;20081;-27
2023/12/23 05:41:32;;;;;;;1.73;0.85;;;19.80;63.00;;;;;;4990820;28;20129;-26
2023/12/23 05:44:00;;;;;;;1.00;0.70;;;;;;;;;;4991407;28;20046;-27
2023/12/23 05:46:27;;;;;;;1.05;0.65;;;19.60;61.30;;;;;;4991221;28;20515;-27
2023/12/23 05:48:55;;;;;;;1.17;0.60;;;19.80;48.40;;;;;;4984868;28;20117;-27
2023/12/23 05:51:22;;;;;;;1.48;0.90;;;;;;;;;;4994853;28;20046;-27
2023/12/23 05:53:49;;;;;;;0.70;0.55;;;20.60;58.10;;;;;;4994816;28;20054;-26
2023/12/23 05:56:16;;;;;;;1.10;0.60;;;19.80;72.90;;;;;;4995208;28;20058;-25
2023/12/23 05:58:43;;;;;;;1.92;0.55;;;;;;;;;;4994415;28;20054;-26
2023/12/23 06:01:11;;;;;;;0.85;0.50;;;;;;;;;;4995006;28;20046;-26
2023/12/23 06:03:37;;;;;;;0.80;0.60;;;19.70;72.60;;;;;;4994552;28;20523;-27
2023/12/23 06:06:06;;;;;;;1.83;0.70;;;;;;;;;;4994858;28;20051;-27
2023/12/23 06:08:33;;;;;;;0.77;0.50;;;;;;;;;;4994619;28;20054;-27
2023/12/23 06:11:02;;;;;;;0.90;0.57;;;;;;;;;;4994425;28;20109;-27
2023/12/23 06:13:29;;;;;;;0.60;0.50;;;;;;;;;;4994482;28;20134;-26
2023/12/23 06:15:56;;;;;;;0.38;0.38;;;19.90;70.40;;;;;;4994350;28;20050;-27
2023/12/23 06:18:23;;;;;;;0.77;0.50;;;;;;;;;;4994355;28;20112;-27
2023/12/23 06:20:50;;;;;;;1.23;0.60;;;19.80;72.90;;;;;;4994469;28;20061;-25
2023/12/23 06:23:19;;;;;;;1.42;0.70;;;;;;;;;;4994373;28;20054;-26
2023/12/23 06:25:46;;;;;;;1.40;0.50;;;;;;;;;;4994213;28;20050;-27
2023/12/23 06:28:13;;;;;;;0.85;0.50;;;;;;;;;;5000281;28;20112;-27
2023/12/23 06:30:40;;;;;;;1.05;0.70;;;;;;;;;;4994325;28;20120;-26
2023/12/23 06:33:07;;;;;;;0.80;0.60;;;;;;;;;;4994180;28;20046;-27
2023/12/23 06:35:34;;;;;;;1.65;0.80;;;20.80;66.10;;;;;;4994223;28;20121;-27
2023/12/23 06:38:02;;;;;;;0.80;0.52;;;;;;;;;;4993268;28;20042;-27
2023/12/23 06:40:31;;;;;;;0.43;0.40;;;19.80;48.30;;;;;;4994229;28;20109;-25
2023/12/23 06:42:57;;;;;;;0.88;0.60;;;19.80;72.90;;;;;;4993994;28;20105;-26
2023/12/23 06:45:25;;;;;;;0.95;0.50;;;;;;;;;;4985760;28;20054;-26
2023/12/23 06:47:52;;;;;;;0.50;0.40;;;;;;;;;;4993132;28;20137;-26
2023/12/23 06:50:19;;;;;;;1.02;0.63;;;;;;;;;;4993903;28;20046;-26
2023/12/23 06:52:46;;;;;;;1.85;1.13;;;;;;;;;;4993627;28;20058;-26
2023/12/23 06:55:14;;;;;;;0.45;0.35;;;;;;;;;;4993998;28;20047;-27
2023/12/23 06:57:42;;;;;;;0.40;0.40;;;19.90;48.40;;;;;;5002649;28;20470;-26
2023/12/23 07:00:10;;;;;;;0.32;0.30;;;;;;;;;;4993444;28;20055;-26
2023/12/23 07:02:37;;;;;;;1.95;0.47;;;;;;;;;;4993376;28;20078;-25
2023/12/23 07:05:04;;;;;;;0.63;0.52;;;;;;;;;;4993748;28;20082;-26
2023/12/23 07:07:31;;;;;;;0.73;0.50;;;;;;;;;;4993466;28;20062;-26
2023/12/23 07:09:59;;;;;;;0.40;0.40;;;;;;;;;;4993460;28;20051;-27
2023/12/23 07:12:28;;;;;;;1.08;0.57;;;19.80;48.30;;;;;;4993547;28;20070;-27
2023/12/23 07:14:57;;;;;;;0.68;0.45;;;;;;;;;;4993358;28;20113;-26
2023/12/23 07:17:24;;;;;;;0.55;0.30;;;;;;;;;;4993526;28;20109;-27
2023/12/23 07:19:50;;;;;;;1.48;0.60;;;;;;;;;;4993220;28;20051;-27
2023/12/23 07:22:17;;;;;;;1.10;0.50;;;;;;;;;;4993468;28;20077;-27
2023/12/23 07:24:44;;;;;;;1.17;0.57;;;;;;;;;;4993448;28;20051;-27
2023/12/23 07:27:12;;;;;;;0.70;0.45;;;;;;;;;;4992981;28;20085;-26
2023/12/23 07:29:40;;;;;;;0.57;0.50;;;;;;;;;;4993229;28;20050;-27
2023/12/23 07:32:08;;;;;;;0.80;0.50;;;19.90;48.30;;;;;;4992995;28;20111;-27
2023/12/23 07:34:35;;;;;;;1.42;0.93;;;;;;;;;;4993159;28;20128;-27
2023/12/23 07:37:02;;;;;;;0.65;0.50;;;19.80;71.20;;;;;;4989197;28;20498;-26
2023/12/23 07:39:29;;;;;;;0.82;0.60;;;19.80;72.50;;;;;;4992488;28;20503;-27
2023/12/23 07:41:57;;;;;;;0.75;0.45;;;19.90;54.00;;;;;;4992391;28;20101;-26
2023/12/23 07:44:24;;;;;;;0.85;0.60;;;;;;;;;;4992339;28;20042;-26
2023/12/23 07:46:52;;;;;;;0.47;0.47;;;;;;;;;;4992448;28;20050;-27
2023/12/23 07:49:20;;;;;;;1.08;0.55;;;;;;;;;;4992254;28;20051;-27
2023/12/23 07:51:47;;;;;;;0.75;0.60;;;;;;;;;;4992732;28;20153;-25
2023/12/23 07:54:15;;;;;;;0.88;0.63;;;;;;;;;;4992742;28;20124;-26
2023/12/23 07:56:41;;;;;;;0.85;0.57;;;18.90;68.20;;;;;;4996720;28;20077;-26
2023/12/23 07:59:09;;;;;;;0.70;0.60;;;;;;;;;;5000817;28;20101;-27
2023/12/23 08:01:43;;;;;;;1.27;0.95;;;19.80;72.90;;;;;;4992725;28;20104;-27
2023/12/23 08:04:10;;;;;;;0.65;0.57;;;;;;;;;;4992718;28;20054;-27
2023/12/23 08:06:38;;;;;;;0.63;0.50;;;20.00;48.40;;;;;;4992605;28;20050;-27
2023/12/23 08:09:05;;;;;;;1.08;0.60;;;20.00;54.70;;;;;;4992160;28;20511;-27
2023/12/23 08:11:32;;;;;;;0.93;0.50;;;19.90;73.00;;;;;;4991673;28;20053;-28
2023/12/23 08:13:59;;;;;;;0.82;0.57;;;;;;;;;;4992481;28;20503;-26
2023/12/23 08:16:26;;;;;;;0.63;0.50;;;;;;;;;;4991932;28;20553;-26
2023/12/23 08:18:53;;;;;;;1.30;0.75;;;;;;;;;;4991057;28;20047;-26
2023/12/23 08:21:21;;;;;;;1.33;0.80;;;19.90;72.90;;;;;;4991732;28;20054;-26
2023/12/23 08:23:49;;;;;;;1.20;0.73;;;20.10;48.30;;;;;;4991618;28;20129;-25
2023/12/23 08:26:16;;;;;;;1.52;1.00;;;20.20;72.40;;;;;;4992561;28;20443;-26
2023/12/23 08:28:43;;;;;;;1.67;0.80;;;20.30;72.80;;;;;;4991884;28;20503;-26
2023/12/23 08:31:10;;;;;;;0.75;0.52;;;;;;;;;;4992260;28;20109;-26
2023/12/23 08:33:37;;;;;;;0.73;0.70;;;20.30;72.10;;;;;;4991631;28;20438;-26
2023/12/23 08:36:04;;;;;;;1.52;0.80;;;;;;;;;;4990504;28;20108;-26
2023/12/23 08:38:31;;;;;;;0.77;0.65;;;;;;;;;;4989518;28;20148;-27
2023/12/23 08:40:59;;;;;;;1.25;0.68;;;;;;;;;;4990595;28;20126;-27
2023/12/23 08:43:26;;;;;;;2.10;0.70;;;20.80;72.00;;;;;;4991421;28;20561;-27
2023/12/23 08:45:54;;;;;;;0.60;0.60;;;;;;;;;;4990918;28;20153;-27
2023/12/23 08:48:21;;;;;;;0.93;0.52;;;;;;;;;;4991287;28;20054;-27
2023/12/23 08:50:48;;;;;;;2.97;0.85;;;;;;;;;;4990389;28;20108;-27
2023/12/23 08:53:16;;;;;;;1.00;0.60;;;21.00;71.90;;;;;;4991693;28;20134;-26
2023/12/23 08:55:44;;;;;;;1.17;0.63;;;;;;;;;;4991611;28;20046;-26
2023/12/23 08:58:13;;;;;;;1.25;0.88;;;;;;;;;;4990313;28;20042;-26
2023/12/23 09:00:40;;;;;;;1.83;0.70;;;;;;;;;;4988876;28;20057;-26
2023/12/23 09:03:07;;;;;;;1.48;0.80;;;;;;;;;;4991184;28;20419;-26
2023/12/23 09:05:35;;;;;;;1.83;0.70;;;;;;;;;;4989296;28;20705;-27
2023/12/23 09:08:02;;;;;;;0.85;0.60;;;;;;;;;;4990859;28;20046;-26
2023/12/23 09:10:29;;;;;;;0.45;0.45;;;;;;;;;;4989185;28;20050;-26
2023/12/23 09:12:56;;;;;;;0.57;0.57;;;;;;;;;;4989875;28;20050;-26
2023/12/23 09:15:24;;;;;;;0.95;0.68;;;21.10;47.60;;;;;;4990856;28;20050;-26
2023/12/23 09:17:52;;;;;;;0.70;0.50;;;;;;;;;;4991516;28;20109;-26
2023/12/23 09:20:19;;;;;;;1.17;0.60;;;;;;;;;;4990884;28;20053;-27
2023/12/23 09:22:46;;;;;;;0.93;0.57;;;21.10;71.20;;;;;;4993582;28;20054;-26
2023/12/23 09:25:13;;;;;;;0.90;0.68;;;;;;;;;;4995674;28;20100;-27
2023/12/23 09:27:40;;;;;;;0.70;0.65;;;;;;;;;;4994977;28;20054;-27
2023/12/23 09:30:08;;;;;;;0.77;0.60;;;;;;;;;;4995283;28;20100;-26
2023/12/23 09:32:36;;;;;;;0.93;0.50;;;;;;;;;;4993546;28;20062;-27
2023/12/23 09:35:04;;;;;;;0.85;0.63;;;;;;;;;;4985675;28;20583;-27
2023/12/23 09:37:31;;;;;;;0.57;0.43;;;;;;;;;;4993972;28;20050;-26
2023/12/23 09:39:59;;;;;;;0.50;0.50;;;22.10;68.10;;;;;;4982802;28;20053;-26
2023/12/23 09:42:26;;;;;;;0.65;0.43;;;;;;;;;;4975423;28;20429;-27
2023/12/23 09:44:53;;;;;;;1.95;0.52;;;;;;;;;;4975771;28;20054;-27
2023/12/23 09:47:20;;;;;;;0.82;0.65;;;21.40;52.10;;;;;;4975768;28;20097;-27
2023/12/23 09:49:49;;;;;;;0.70;0.60;;;;;;;;;;4975555;28;20488;-27
2023/12/23 09:52:16;;;;;;;0.93;0.70;;;;;;;;;;4975897;28;20109;-27
2023/12/23 09:54:47;;;;;;;0.63;0.60;;;;;;;;;;4975804;28;20051;-27
2023/12/23 09:57:14;;;;;;;1.67;0.40;;;21.60;56.10;;;;;;4992866;28;20129;-27
2023/12/23 09:59:41;;;;;;;0.68;0.68;;;;;;;;;;5012886;28;20487;-26
2023/12/23 10:02:08;;;;;;;1.10;0.65;;;21.50;54.50;;;;;;5014021;28;20082;-26
2023/12/23 10:04:35;;;;;;;0.70;0.50;;;21.40;66.40;;;;;;5014307;28;20116;-26
2023/12/23 10:07:04;;;;;;;0.50;0.50;;;;;;;;;;5015022;28;20461;-26
2023/12/23 10:09:32;;;;;;;1.05;0.90;;;21.40;57.80;;;;;;5014498;28;20100;-27
2023/12/23 10:11:59;;;;;;;0.47;0.47;;;21.50;51.70;;;;;;5014099;28;20056;-26
2023/12/23 10:14:26;;;;;;;0.68;0.65;;;;;;;;;;5014276;28;20564;-27
2023/12/23 10:16:53;;;;;;;0.55;0.52;;;21.60;70.80;;;;;;4998576;28;20098;-27
2023/12/23 10:19:21;;;;;;;0.65;0.50;;;;;;;;;;4994675;28;20050;-27
2023/12/23 10:21:49;;;;;;;0.82;0.50;;;21.70;47.00;;;;;;4994678;28;20050;-27
2023/12/23 10:24:18;;;;;;;0.68;0.50;;;;;;;;;;4994797;28;20050;-27
2023/12/23 10:26:45;;;;;;;0.45;0.35;;;;;;;;;;4994528;28;20050;-27
2023/12/23 10:29:12;;;;;;;0.60;0.57;;;21.80;70.60;;;;;;4994634;28;20057;-26
2023/12/23 10:31:39;;;;;;;0.32;0.32;;;;;;;;;;4994697;28;20078;-26
2023/12/23 10:34:08;;;;;;;0.45;0.43;;;;;;;;;;4993605;28;20066;-26
2023/12/23 10:36:35;;;;;;;0.40;0.38;;;;;;;;;;4994102;28;20130;-26
2023/12/23 10:39:03;;;;;;;0.70;0.60;;;21.90;69.10;;;;;;4994062;28;20104;-25
2023/12/23 10:41:34;;;;;;;0.70;0.60;;;;;;;;;;4994060;28;20117;-26
2023/12/23 10:44:01;;;;;;;0.57;0.50;;;;;;;;;;4994399;28;20051;-26
2023/12/23 10:46:28;;;;;;;0.65;0.50;;;21.90;70.40;;;;;;4994438;28;20093;-26
2023/12/23 10:48:55;;;;;;;0.43;0.40;;;;;;;;;;4993913;28;20046;-26
2023/12/23 10:51:22;;;;;;;0.50;0.50;;;21.90;64.70;;;;;;4993747;28;20495;-26
2023/12/23 10:53:49;;;;;;;1.00;0.50;;;21.80;70.20;;;;;;4993889;28;20100;-26
2023/12/23 10:56:17;;;;;;;0.63;0.57;;;;;;;;;;4994568;28;20061;-26
2023/12/23 10:58:45;;;;;;;0.30;0.30;;;21.90;46.70;;;;;;4994357;28;20042;-25
2023/12/23 11:01:12;;;;;;;0.40;0.40;;;21.90;46.70;;;;;;4992664;28;20082;-27
2023/12/23 11:03:39;;;;;;;0.50;0.50;;;;;;;;;;4993428;28;20050;-27
2023/12/23 11:06:07;;;;;;;0.40;0.40;;;;;;;;;;4993488;28;20125;-27
2023/12/23 11:08:34;;;;;;;0.77;0.57;;;;;;;;;;4993741;28;20046;-26
2023/12/23 11:11:03;;;;;;;0.80;0.60;;;;;;;;;;4994093;28;20104;-27
2023/12/23 11:13:30;;;;;;;0.40;0.38;;;22.00;70.90;;;;;;4993721;28;20563;-27
2023/12/23 11:15:58;;;;;;;0.77;0.50;;;22.00;46.70;;;;;;4991703;28;20047;-27
2023/12/23 11:18:25;;;;;;;1.10;0.47;;;;;;;;;;4991961;28;20101;-27
2023/12/23 11:20:52;;;;;;;0.52;0.50;;;21.30;70.10;;;;;;4989603;28;20496;-27
2023/12/23 11:23:31;;;;;;;0.43;0.43;;;22.00;46.70;;;;;;4994264;28;20113;-27
2023/12/23 11:25:57;;;;;;;0.47;0.47;;;21.90;70.10;;;;;;4994249;28;20054;-27
2023/12/23 11:28:26;;;;;;;0.98;0.50;;;21.90;46.80;;;;;;4989494;28;20054;-27
2023/12/23 11:30:54;;;;;;;0.50;0.40;;;21.90;46.80;;;;;;4993110;28;20511;-26
2023/12/23 11:33:22;;;;;;;0.43;0.40;;;;;;;;;;4990608;28;20050;-27
2023/12/23 11:35:49;;;;;;;0.73;0.32;;;22.00;54.10;;;;;;4983547;28;20105;-27
2023/12/23 11:38:16;;;;;;;1.85;0.45;;;21.80;46.70;;;;;;4983370;28;20073;-27
2023/12/23 11:40:44;;;;;;;0.47;0.45;;;;;;;;;;4986407;28;20105;-27
2023/12/23 11:43:11;;;;;;;0.43;0.40;;;21.90;70.10;;;;;;4992508;28;20537;-27
2023/12/23 11:45:38;;;;;;;0.50;0.47;;;;;;;;;;4991283;28;20046;-27
2023/12/23 11:48:06;;;;;;;0.40;0.40;;;21.80;46.70;;;;;;4992370;28;20129;-26
2023/12/23 11:50:35;;;;;;;1.95;0.60;;;;;;;;;;4992513;28;20046;-25
2023/12/23 11:53:02;;;;;;;0.30;0.30;;;;;;;;;;4992046;28;20054;-26
2023/12/23 11:55:29;;;;;;;0.30;0.30;;;;;;;;;;4992184;28;20557;-25
2023/12/23 11:57:56;;;;;;;0.52;0.43;;;;;;;;;;4990868;28;20404;-25
2023/12/23 12:00:23;;;;;;;0.55;0.55;;;;;;;;;;4992158;28;20109;-26
2023/12/23 12:02:51;;;;;;;0.40;0.40;;;;;;;;;;4989710;28;20167;-26
2023/12/23 12:05:18;;;;;;;0.50;0.50;;;;;;;;;;4992004;28;20046;-27
2023/12/23 12:07:46;;;;;;;0.70;0.52;;;;;;;;;;4992086;28;20054;-27
2023/12/23 12:10:14;;;;;;;0.40;0.40;;;21.50;46.90;;;;;;4992040;28;20072;-27
2023/12/23 12:12:42;;;;;;;0.40;0.40;;;;;;;;;;4991680;28;20101;-27
2023/12/23 12:15:09;;;;;;;0.93;0.50;;;21.50;56.50;;;;;;4988803;28;20046;-27
2023/12/23 12:17:36;;;;;;;0.40;0.40;;;;;;;;;;4991985;28;20046;-27
2023/12/23 12:20:04;;;;;;;0.52;0.40;;;21.40;70.20;;;;;;4991886;28;20042;-27
2023/12/23 12:22:31;;;;;;;0.30;0.30;;;21.50;70.40;;;;;;4992093;28;20112;-26
2023/12/23 12:25:00;;;;;;;0.40;0.40;;;;;;;;;;4989521;28;20097;-27
2023/12/23 12:27:27;;;;;;;0.60;0.50;;;;;;;;;;4991820;28;20046;-26
2023/12/23 12:29:54;;;;;;;0.30;0.30;;;22.00;71.10;;;;;;4992203;28;20108;-25
2023/12/23 12:32:23;;;;;;;0.30;0.30;;;;;;;;;;4991525;28;20446;-26
2023/12/23 12:34:50;;;;;;;0.30;0.30;;;;;;;;;;4992055;28;20046;-26
2023/12/23 12:37:17;;;;;;;0.45;0.45;;;;;;;;;;4991406;28;20411;-27
2023/12/23 12:39:45;;;;;;;0.32;0.32;;;;;;;;;;4991401;28;20046;-27
2023/12/23 12:42:14;;;;;;;0.25;0.25;;;21.10;47.10;;;;;;4991054;28;20049;-27
2023/12/23 12:44:43;;;;;;;0.28;0.28;;;21.10;71.10;;;;;;4991828;28;20054;-27
2023/12/23 12:47:10;;;;;;;0.73;0.40;;;;;;;;;;4992159;28;20054;-27
2023/12/23 12:49:43;;;;;;;1.98;0.82;;;;;;;;;;4991714;28;20046;-27
2023/12/23 12:52:10;;;;;;;1.48;0.52;;;20.90;56.20;;;;;;4992055;28;20054;-27
2023/12/23 12:54:37;;;;;;;0.30;0.30;;;;;;;;;;4991575;28;20061;-27
2023/12/23 12:57:05;;;;;;;2.40;0.47;;;;;;;;;;4998756;28;20053;-27
2023/12/23 12:59:33;;;;;;;0.40;0.40;;;;;;;;;;5011392;28;20092;-27
2023/12/23 13:02:00;;;;;;;0.40;0.40;;;;;;;;;;4999636;28;20109;-26
2023/12/23 13:04:28;;;;;;;0.40;0.30;;;;;;;;;;4990532;28;20495;-27
2023/12/23 13:06:54;;;;;;;0.22;0.22;;;20.50;51.40;;;;;;4991158;28;20050;-26
2023/12/23 13:09:22;;;;;;;0.68;0.30;;;;;;;;;;4991567;28;20050;-27
2023/12/23 13:11:49;;;;;;;0.65;0.50;;;;;;;;;;4991755;28;20046;-27
2023/12/23 13:14:16;;;;;;;0.35;0.35;;;;;;;;;;4991009;28;20097;-26
2023/12/23 13:16:44;;;;;;;0.43;0.30;;;20.40;47.80;;;;;;4989565;28;20058;-27
2023/12/23 13:19:12;;;;;;;0.63;0.40;;;;;;;;;;4989950;28;20051;-27
2023/12/23 13:21:39;;;;;;;0.50;0.28;;;20.40;57.50;;;;;;4991006;28;20558;-26
2023/12/23 13:24:06;;;;;;;0.50;0.32;;;;;;;;;;4991449;28;20060;-26
2023/12/23 13:26:33;;;;;;;0.52;0.32;;;;;;;;;;4991143;28;20097;-26
2023/12/23 13:29:01;;;;;;;0.60;0.50;;;;;;;;;;4991119;28;20054;-27
2023/12/23 13:31:27;;;;;;;4.07;0.65;;;20.20;57.70;;;;;;4990572;28;20047;-26
2023/12/23 13:33:56;;;;;;;1.27;0.45;;;20.20;48.10;;;;;;4991373;28;20057;-26
2023/12/23 13:36:23;;;;;;;1.60;0.40;;;19.10;71.70;;;;;;4990607;28;20081;-26
2023/12/23 13:38:50;;;;;;;1.42;0.40;;;;;;;;;;4991373;28;20050;-26
2023/12/23 13:41:24;;;;;;;1.50;0.40;;;20.20;64.70;;;;;;4990622;28;20042;-26
2023/12/23 13:43:51;;;;;;;0.55;0.35;;;;;;;;;;4990952;28;20052;-25
2023/12/23 13:46:18;;;;;;;0.30;0.30;;;;;;;;;;4991095;28;20073;-26
2023/12/23 13:48:45;;;;;;;0.50;0.50;;;;;;;;;;4990594;28;20089;-26
2023/12/23 13:51:14;;;;;;;0.30;0.30;;;;;;;;;;4991537;28;20046;-26
2023/12/23 13:53:43;;;;;;;0.28;0.28;;;;;;;;;;4990966;28;20675;-26
2023/12/23 13:56:10;;;;;;;0.32;0.32;;;;;;;;;;4991134;28;20108;-26
2023/12/23 13:58:37;;;;;;;0.43;0.43;;;;;;;;;;4971139;28;20055;-26